createdAt,value
2022-11-19T00:03:39.615Z,26.8
2022-11-19T00:09:17.823Z,26.4
2022-11-19T00:15:00.794Z,26.2
2022-11-19T00:20:07.967Z,26.1
2022-11-19T00:25:46.037Z,25.9
2022-11-19T00:31:38.655Z,25.7
2022-11-19T00:37:00.702Z,25.4
2022-11-19T00:42:24.038Z,25.3
2022-11-19T00:48:02.227Z,25.1
2022-11-19T00:53:39.847Z,24.8
2022-11-19T00:59:02.257Z,26.1
2022-11-19T01:04:40.551Z,30.1
2022-11-19T01:10:03.479Z,28.5
2022-11-19T01:15:41.012Z,26.6
2022-11-19T01:21:18.640Z,26.1
2022-11-19T01:26:45.430Z,26
2022-11-19T01:32:07.813Z,25.9
2022-11-19T01:37:45.322Z,25.8
2022-11-19T01:43:23.352Z,25.5
2022-11-19T01:48:44.969Z,25.3
2022-11-19T01:54:23.093Z,25.1
2022-11-19T02:00:01.087Z,24.9
2022-11-19T02:05:39.233Z,24.7
2022-11-19T02:11:02.051Z,25.5
2022-11-19T02:16:39.510Z,29.8
2022-11-19T02:22:16.641Z,28.6
2022-11-19T02:27:59.296Z,26.7
2022-11-19T02:33:19.915Z,26.3
2022-11-19T02:38:57.832Z,26.2
2022-11-19T02:44:20.376Z,26
2022-11-19T02:49:42.912Z,25.8
2022-11-19T02:55:19.993Z,25.6
2022-11-19T03:00:42.784Z,25.4
2022-11-19T03:06:05.669Z,25.2
2022-11-19T03:11:42.889Z,24.9
2022-11-19T03:17:20.311Z,24.8
2022-11-19T03:22:42.308Z,26.4
2022-11-19T03:27:48.649Z,29.9
2022-11-19T03:33:26.361Z,28.8
2022-11-19T03:39:03.811Z,26.6
2022-11-19T03:44:41.864Z,26.1
2022-11-19T03:50:19.299Z,26.1
2022-11-19T03:55:58.624Z,25.9
2022-11-19T04:01:42.395Z,25.7
2022-11-19T04:07:19.991Z,25.5
2022-11-19T04:12:57.096Z,25.3
2022-11-19T04:18:19.494Z,25.1
2022-11-19T04:23:41.658Z,24.9
2022-11-19T04:29:03.599Z,24.7
2022-11-19T04:34:10.841Z,26.8
2022-11-19T04:39:48.051Z,30
2022-11-19T04:45:10.236Z,28.5
2022-11-19T04:50:32.632Z,26.6
2022-11-19T04:56:16.089Z,26.2
2022-11-19T05:01:55.773Z,26
2022-11-19T05:07:02.139Z,25.8
2022-11-19T05:12:41.058Z,26.9
2022-11-19T05:18:22.736Z,30.4
2022-11-19T05:24:00.602Z,29.6
2022-11-19T05:29:45.881Z,26.8
2022-11-19T05:35:28.412Z,26.2
2022-11-19T05:41:06.516Z,26
2022-11-19T05:46:43.977Z,25.8
2022-11-19T05:52:22.358Z,25.6
2022-11-19T05:58:00.707Z,28.1
2022-11-19T06:03:38.869Z,31.1
2022-11-19T06:09:16.664Z,28.1
2022-11-19T06:14:58.697Z,26.5
2022-11-19T06:20:36.352Z,26.1
2022-11-19T06:26:00.954Z,26
2022-11-19T06:31:39.195Z,25.8
2022-11-19T06:37:23.543Z,25.6
2022-11-19T06:43:07.034Z,28.1
2022-11-19T06:48:45.012Z,31.4
2022-11-19T06:54:23.944Z,27.9
2022-11-19T07:00:03.947Z,26.4
2022-11-19T07:05:42.238Z,26.1
2022-11-19T07:11:22.596Z,26
2022-11-19T07:16:45.850Z,25.8
2022-11-19T07:22:24.202Z,25.6
2022-11-19T07:28:04.053Z,25.4
2022-11-19T07:33:42.065Z,25.1
2022-11-19T07:39:27.206Z,24.9
2022-11-19T07:45:10.986Z,24.8
2022-11-19T07:50:51.210Z,24.5
2022-11-19T07:56:16.040Z,28.1
2022-11-19T08:01:45.392Z,31.3
2022-11-19T08:07:28.163Z,27.3
2022-11-19T08:13:06.176Z,26.3
2022-11-19T08:18:47.886Z,26
2022-11-19T08:24:26.592Z,25.9
2022-11-19T08:30:07.225Z,25.8
2022-11-19T08:35:45.963Z,25.5
2022-11-19T08:41:24.577Z,25.3
2022-11-19T08:47:02.894Z,25.1
2022-11-19T08:52:40.643Z,24.8
2022-11-19T08:58:18.330Z,24.6
2022-11-19T09:04:00.030Z,24.4
2022-11-19T09:09:44.277Z,25.9
2022-11-19T09:15:07.292Z,30.5
2022-11-19T09:20:49.677Z,28.3
2022-11-19T09:26:27.081Z,26.4
2022-11-19T09:32:10.504Z,25.9
2022-11-19T09:37:48.472Z,25.8
2022-11-19T09:43:31.793Z,25.7
2022-11-19T09:49:10.211Z,25.5
2022-11-19T09:54:47.903Z,25.3
2022-11-19T10:00:25.923Z,25
2022-11-19T10:05:48.623Z,24.7
2022-11-19T10:11:32.531Z,24.3
2022-11-19T10:17:00.719Z,24.1
2022-11-19T10:22:38.572Z,23.9
2022-11-19T10:28:17.747Z,23.8
2022-11-19T10:33:55.674Z,23.6
2022-11-19T10:39:39.367Z,23.4
2022-11-19T10:45:20.365Z,23.3
2022-11-19T10:51:01.973Z,23.1
2022-11-19T10:56:29.238Z,22.9
2022-11-19T11:01:51.859Z,22.8
2022-11-19T11:07:32.601Z,22.6
2022-11-19T11:13:12.108Z,22.4
2022-11-19T11:18:51.082Z,22.4
2022-11-19T11:24:29.359Z,22.3
2022-11-19T11:30:11.879Z,22.1
2022-11-19T11:35:59.269Z,22.1
2022-11-19T11:47:04.418Z,21.8
2022-11-19T11:52:33.329Z,21.7
2022-11-19T11:58:11.288Z,21.7
2022-11-19T12:03:18.255Z,21.6
2022-11-19T12:08:59.684Z,21.6
2022-11-19T12:14:43.781Z,21.5
2022-11-19T12:20:21.347Z,21.4
2022-11-19T12:25:44.650Z,21.4
2022-11-19T12:31:21.266Z,21.4
2022-11-19T12:36:59.243Z,21.4
2022-11-19T12:42:38.768Z,21.3
2022-11-19T12:48:18.237Z,21.3
2022-11-19T12:53:56.068Z,21.3
2022-11-19T12:59:39.739Z,21.3
2022-11-19T13:05:17.840Z,21.3
2022-11-19T13:10:44.183Z,21.3
2022-11-19T13:15:51.290Z,21.3
2022-11-19T13:21:29.188Z,21.3
2022-11-19T13:27:06.763Z,21.3
2022-11-19T13:32:44.893Z,21.3
2022-11-19T13:38:28.319Z,21.3
2022-11-19T13:44:32.026Z,21.3
2022-11-19T13:50:11.899Z,21.3
2022-11-19T13:55:53.568Z,21.3
2022-11-19T14:01:30.942Z,21.2
2022-11-19T14:07:08.893Z,21.2
2022-11-19T14:28:48.587Z,21.1
2022-11-19T14:34:27.290Z,21.1
2022-11-19T14:40:05.517Z,21.1
2022-11-19T14:45:47.772Z,21
2022-11-19T14:51:11.025Z,21
2022-11-19T14:56:49.631Z,21
2022-11-19T15:02:28.537Z,20.9
2022-11-19T15:08:12.438Z,20.9
2022-11-19T15:13:49.798Z,20.9
2022-11-19T15:19:11.659Z,20.9
2022-11-19T15:24:33.801Z,20.9
2022-11-19T15:29:46.952Z,20.9
2022-11-19T15:35:46.835Z,21
2022-11-19T15:41:09.288Z,21
2022-11-19T15:46:47.521Z,20.9
2022-11-19T15:51:58.196Z,20.9
2022-11-19T15:57:22.605Z,20.9
2022-11-19T16:08:09.179Z,21
2022-11-19T16:13:17.921Z,20.9
2022-11-19T16:18:46.295Z,20.9
2022-11-19T16:24:27.722Z,20.9
2022-11-19T16:30:06.907Z,20.9
2022-11-19T16:35:49.787Z,20.9
2022-11-19T16:41:30.078Z,20.9
2022-11-19T16:46:53.382Z,20.9
2022-11-19T16:52:30.867Z,20.9
2022-11-19T16:57:57.118Z,20.9
2022-11-19T17:03:41.301Z,20.9
2022-11-19T17:09:19.131Z,20.9
2022-11-19T17:14:41.504Z,20.8
2022-11-19T17:20:25.474Z,20.8
2022-11-19T17:25:52.544Z,20.8
2022-11-19T17:31:30.087Z,20.8
2022-11-19T17:36:56.785Z,20.8
2022-11-19T17:42:34.977Z,20.8
2022-11-19T17:47:54.379Z,20.8
2022-11-19T17:53:17.193Z,20.8
2022-11-19T17:58:54.802Z,20.8
2022-11-19T18:04:35.284Z,20.8
2022-11-19T18:09:58.140Z,20.8
2022-11-19T18:14:50.691Z,20.8
2022-11-19T18:20:30.831Z,20.8
2022-11-19T18:26:09.861Z,20.8
2022-11-19T18:31:37.287Z,20.7
2022-11-19T18:37:01.169Z,20.7
2022-11-19T18:42:41.703Z,20.7
2022-11-19T18:48:26.091Z,20.7
2022-11-19T18:54:07.252Z,20.7
2022-11-19T18:59:53.027Z,20.7
2022-11-19T19:05:06.914Z,20.7
2022-11-19T19:10:17.599Z,20.6
2022-11-19T19:15:56.503Z,20.6
2022-11-19T19:21:24.621Z,20.6
2022-11-19T19:27:11.683Z,20.6
2022-11-19T19:32:40.048Z,20.6
2022-11-19T19:38:19.669Z,20.6
2022-11-19T19:44:04.997Z,20.6
2022-11-19T19:49:44.872Z,20.6
2022-11-19T19:55:24.457Z,20.6
2022-11-19T20:00:49.497Z,20.6
2022-11-19T20:06:29.175Z,20.6
2022-11-19T20:12:12.714Z,20.6
2022-11-19T20:17:41.900Z,20.6
2022-11-19T20:23:20.218Z,20.2
2022-11-19T20:29:01.001Z,26.6
2022-11-19T20:34:40.874Z,29.9
2022-11-19T20:40:03.005Z,30.2
2022-11-19T20:45:48.048Z,26.4
2022-11-19T20:51:29.998Z,25.6
2022-11-19T20:57:11.905Z,25.3
2022-11-19T21:02:55.079Z,25.1
2022-11-19T21:14:00.622Z,24.4
2022-11-19T21:19:27.296Z,28.9
2022-11-19T21:25:08.357Z,31.4
2022-11-19T21:30:47.520Z,28.8
2022-11-19T21:36:26.350Z,26.3
2022-11-19T21:42:06.885Z,29.5
2022-11-19T21:47:45.143Z,32.3
2022-11-19T21:53:23.168Z,30.6
2022-11-19T21:59:06.666Z,29.6
2022-11-19T22:04:44.268Z,32.8
2022-11-19T22:10:22.269Z,28.4
2022-11-19T22:15:35.230Z,26.4
2022-11-19T22:21:13.152Z,28.9
2022-11-19T22:26:51.172Z,32.3
2022-11-19T22:32:35.309Z,29.4
2022-11-19T22:38:19.593Z,26.6
2022-11-19T22:43:26.074Z,26.1
2022-11-19T22:48:33.133Z,30.1
2022-11-19T22:54:11.217Z,32.9
2022-11-19T22:59:03.057Z,28
2022-11-19T23:04:41.985Z,26.4
2022-11-19T23:10:24.923Z,26
2022-11-19T23:15:47.730Z,28.5
2022-11-19T23:21:28.354Z,32.4
2022-11-19T23:27:06.183Z,29.4
2022-11-19T23:32:44.211Z,26.6
2022-11-19T23:38:28.222Z,26.1
2022-11-19T23:43:56.366Z,25.9
2022-11-19T23:49:34.304Z,30.9
2022-11-19T23:55:12.275Z,31.3
